createdAt,value
2022-08-19T00:02:25.411Z,97511.06
2022-08-19T00:05:27.419Z,97507.50
2022-08-19T00:08:29.442Z,97514.97
2022-08-19T00:11:31.652Z,97504.81
2022-08-19T00:14:33.592Z,97499.13
2022-08-19T00:17:35.597Z,97499.06
2022-08-19T00:20:43.900Z,97495.31
2022-08-19T00:23:46.693Z,97499.94
2022-08-19T00:26:48.726Z,97490.91
2022-08-19T00:29:52.324Z,97485.72
2022-08-19T00:32:57.708Z,97483.66
2022-08-19T00:36:05.756Z,97487.16
2022-08-19T00:39:08.049Z,97487.91
2022-08-19T00:42:09.965Z,97496.94
2022-08-19T00:45:18.421Z,97483.44
2022-08-19T00:48:21.793Z,97483.09
2022-08-19T00:51:24.528Z,97494.31
2022-08-19T00:54:31.292Z,97489.59
2022-08-19T00:57:43.721Z,97482.09
2022-08-19T01:00:46.881Z,97493.44
2022-08-19T01:03:57.591Z,97492.09
2022-08-19T01:07:03.075Z,97492.69
2022-08-19T01:10:07.715Z,97491.63
2022-08-19T01:13:10.355Z,97482.78
2022-08-19T01:16:12.570Z,97492.44
2022-08-19T01:19:43.831Z,97481.34
2022-08-19T01:22:53.935Z,97485.91
2022-08-19T01:25:58.164Z,97481.25
2022-08-19T01:29:02.256Z,97475.50
2022-08-19T01:32:07.908Z,97475.38
2022-08-19T01:35:31.253Z,97475.50
2022-08-19T01:38:37.698Z,97467.41
2022-08-19T01:41:47.466Z,97465.16
2022-08-19T01:44:50.078Z,97465.63
2022-08-19T01:48:01.784Z,97479.44
2022-08-19T01:51:05.048Z,97472.38
2022-08-19T01:54:08.281Z,97470.78
2022-08-19T01:57:13.970Z,97465.09
2022-08-19T02:00:18.541Z,97455.69
2022-08-19T02:03:24.037Z,97453.50
2022-08-19T02:06:26.874Z,97459.31
2022-08-19T02:09:32.738Z,97458.84
2022-08-19T02:12:38.312Z,97456.50
2022-08-19T02:15:40.321Z,97462.31
2022-08-19T02:18:42.688Z,97448.63
2022-08-19T02:21:44.774Z,97444.69
2022-08-19T02:24:49.555Z,97440.28
2022-08-19T02:27:51.509Z,97456.53
2022-08-19T02:30:53.302Z,97447.94
2022-08-19T02:33:57.002Z,97445.19
2022-08-19T02:37:03.121Z,97448.91
2022-08-19T02:40:12.370Z,97462.03
2022-08-19T02:43:14.874Z,97470.31
2022-08-19T02:46:23.447Z,97460.50
2022-08-19T02:49:25.606Z,97455.22
2022-08-19T02:52:28.538Z,97450.69
2022-08-19T02:55:30.946Z,97451.34
2022-08-19T02:58:49.508Z,97464.72
2022-08-19T03:01:54.897Z,97466.59
2022-08-19T03:04:56.815Z,97472.91
2022-08-19T03:08:00.751Z,97475.50
2022-08-19T03:11:03.182Z,97470.97
2022-08-19T03:14:07.646Z,97475.56
2022-08-19T03:17:09.882Z,97472.41
2022-08-19T03:20:11.911Z,97479.91
2022-08-19T03:23:16.285Z,97483.53
2022-08-19T03:26:18.174Z,97482.94
2022-08-19T03:29:30.740Z,97486.09
2022-08-19T03:32:35.284Z,97488.94
2022-08-19T03:35:44.637Z,97505.78
2022-08-19T03:38:49.557Z,97502.41
2022-08-19T03:42:32.484Z,97501.13
2022-08-19T03:45:23.961Z,97489.03
2022-08-19T03:48:26.672Z,97490.22
2022-08-19T03:51:32.249Z,97489.84
2022-08-19T03:54:34.552Z,97486.09
2022-08-19T03:57:37.562Z,97494.13
2022-08-19T04:00:43.571Z,97502.47
2022-08-19T04:03:48.315Z,97504.75
2022-08-19T04:06:50.355Z,97510.84
2022-08-19T04:09:53.359Z,97495.47
2022-08-19T04:12:55.594Z,97501.47
2022-08-19T04:15:57.895Z,97504.25
2022-08-19T04:19:02.365Z,97496.81
2022-08-19T04:22:05.616Z,97490.78
2022-08-19T04:25:08.092Z,97505.75
2022-08-19T04:28:11.820Z,97501.03
2022-08-19T04:31:16.978Z,97499.09
2022-08-19T04:34:25.791Z,97519.19
2022-08-19T04:37:29.539Z,97514.09
2022-08-19T04:41:14.936Z,97523.19
2022-08-19T04:44:22.742Z,97516.41
2022-08-19T04:47:47.819Z,97518.38
2022-08-19T04:50:47.991Z,97507.69
2022-08-19T04:53:50.470Z,97514.72
2022-08-19T04:56:55.728Z,97526.28
2022-08-19T04:59:59.551Z,97518.88
2022-08-19T05:03:03.709Z,97518.44
2022-08-19T05:06:12.883Z,97523.53
2022-08-19T05:09:17.209Z,97518.84
2022-08-19T05:12:19.465Z,97519.22
2022-08-19T05:15:21.294Z,97513.13
2022-08-19T05:18:41.986Z,97514.47
2022-08-19T05:22:05.457Z,97511.31
2022-08-19T05:25:13.012Z,97511.78
2022-08-19T05:28:15.870Z,97508.03
2022-08-19T05:31:18.130Z,97520.94
2022-08-19T05:34:22.910Z,97518.06
2022-08-19T05:37:28.023Z,97516.75
2022-08-19T05:40:30.505Z,97524.09
2022-08-19T05:43:32.457Z,97533.06
2022-08-19T05:46:34.780Z,97528.81
2022-08-19T05:49:38.157Z,97536.94
2022-08-19T05:52:43.804Z,97535.91
2022-08-19T05:55:54.224Z,97539.19
2022-08-19T05:59:02.583Z,97542.69
2022-08-19T06:02:05.799Z,97535.44
2022-08-19T06:05:10.303Z,97538.09
2022-08-19T06:08:12.557Z,97542.44
2022-08-19T06:11:21.780Z,97534.91
2022-08-19T06:14:28.050Z,97552.16
2022-08-19T06:17:32.077Z,97549.41
2022-08-19T06:20:54.956Z,97553.72
2022-08-19T06:23:58.601Z,97548.28
2022-08-19T06:27:02.858Z,97558.47
2022-08-19T06:30:06.004Z,97559.31
2022-08-19T06:33:09.437Z,97564.38
2022-08-19T06:36:42.357Z,97569.56
2022-08-19T06:39:46.559Z,97576.53
2022-08-19T06:42:54.509Z,97573.63
2022-08-19T06:46:00.004Z,97570.66
2022-08-19T06:49:04.564Z,97571.44
2022-08-19T06:52:08.150Z,97578.31
2022-08-19T06:55:12.396Z,97565.16
2022-08-19T06:58:15.410Z,97565.28
2022-08-19T07:01:17.415Z,97562.31
2022-08-19T07:04:25.537Z,97563.78
2022-08-19T07:07:28.788Z,97567.31
2022-08-19T07:10:33.418Z,97565.97
2022-08-19T07:13:40.169Z,97571.00
2022-08-19T07:16:43.106Z,97579.16
2022-08-19T07:19:46.112Z,97578.19
2022-08-19T07:22:49.496Z,97585.38
2022-08-19T07:25:53.170Z,97579.44
2022-08-19T07:28:56.792Z,97577.13
2022-08-19T07:32:01.381Z,97582.25
2022-08-19T07:35:04.722Z,97586.84
2022-08-19T07:38:07.025Z,97586.03
2022-08-19T07:41:12.209Z,97586.50
2022-08-19T07:44:15.723Z,97581.00
2022-08-19T07:47:50.347Z,97579.22
2022-08-19T07:50:41.926Z,97578.41
2022-08-19T07:53:47.775Z,97583.44
2022-08-19T07:56:52.417Z,97593.44
2022-08-19T07:59:54.592Z,97589.31
2022-08-19T08:02:57.411Z,97587.56
2022-08-19T08:06:18.306Z,97588.72
2022-08-19T08:09:33.683Z,97593.06
2022-08-19T08:12:42.432Z,97587.88
2022-08-19T08:15:46.252Z,97586.31
2022-08-19T08:18:50.573Z,97586.09
2022-08-19T08:21:57.310Z,97585.50
2022-08-19T08:25:04.387Z,97588.38
2022-08-19T08:28:11.270Z,97588.59
2022-08-19T08:31:14.671Z,97590.53
2022-08-19T08:34:16.901Z,97577.31
2022-08-19T08:37:20.428Z,97576.72
2022-08-19T08:40:44.586Z,97558.78
2022-08-19T08:43:48.960Z,97567.44
2022-08-19T08:46:57.177Z,97557.91
2022-08-19T08:50:27.612Z,97559.94
2022-08-19T08:53:32.501Z,97559.88
2022-08-19T08:56:36.541Z,97552.78
2022-08-19T08:59:42.340Z,97542.00
2022-08-19T09:02:50.831Z,97545.09
2022-08-19T09:06:47.420Z,97537.69
2022-08-19T09:09:52.661Z,97539.41
2022-08-19T09:13:17.775Z,97539.41
2022-08-19T09:16:27.736Z,97538.53
2022-08-19T09:19:31.736Z,97532.25
2022-08-19T09:22:36.696Z,97528.41
2022-08-19T09:25:41.598Z,97531.13
2022-08-19T09:28:48.309Z,97540.13
2022-08-19T09:31:51.290Z,97530.97
2022-08-19T09:34:56.143Z,97537.09
2022-08-19T09:38:00.692Z,97538.41
2022-08-19T09:41:08.047Z,97531.47
2022-08-19T09:44:12.909Z,97530.72
2022-08-19T09:47:15.429Z,97532.09
2022-08-19T09:50:24.409Z,97532.66
2022-08-19T09:53:27.717Z,97517.34
2022-08-19T09:56:33.952Z,97518.16
2022-08-19T09:59:36.560Z,97519.09
2022-08-19T10:02:39.915Z,97514.38
2022-08-19T10:05:50.659Z,97505.78
2022-08-19T10:08:57.331Z,97502.75
2022-08-19T10:12:02.896Z,97508.53
2022-08-19T10:15:07.341Z,97500.69
2022-08-19T10:18:09.981Z,97495.38
2022-08-19T10:21:17.135Z,97504.84
2022-08-19T10:24:21.344Z,97500.94
2022-08-19T10:27:23.901Z,97490.53
2022-08-19T10:30:29.055Z,97478.19
2022-08-19T10:33:38.895Z,97481.25
2022-08-19T10:36:56.565Z,97484.78
2022-08-19T10:40:04.702Z,97477.88
2022-08-19T10:43:06.667Z,97482.81
2022-08-19T10:46:14.062Z,97491.13
2022-08-19T10:49:20.310Z,97489.06
2022-08-19T10:52:34.369Z,97484.34
2022-08-19T10:55:54.931Z,97477.31
2022-08-19T10:58:58.167Z,97468.81
2022-08-19T11:02:02.384Z,97470.25
2022-08-19T11:05:12.675Z,97476.84
2022-08-19T11:08:22.516Z,97485.06
2022-08-19T11:11:25.419Z,97492.53
2022-08-19T11:14:28.394Z,97495.81
2022-08-19T11:17:34.577Z,97495.97
2022-08-19T11:20:36.802Z,97499.84
2022-08-19T11:23:38.854Z,97502.69
2022-08-19T11:26:42.137Z,97485.59
2022-08-19T11:29:44.170Z,97489.53
2022-08-19T11:32:49.359Z,97487.50
2022-08-19T11:35:51.737Z,97481.66
2022-08-19T11:38:55.633Z,97488.31
2022-08-19T11:41:59.724Z,97483.78
2022-08-19T11:45:02.119Z,97478.78
2022-08-19T11:48:04.383Z,97483.94
2022-08-19T11:51:18.670Z,97478.84
2022-08-19T11:54:20.571Z,97489.78
2022-08-19T11:57:22.685Z,97483.63
2022-08-19T12:00:24.714Z,97485.00
2022-08-19T12:03:27.286Z,97475.00
2022-08-19T12:06:32.916Z,97468.97
2022-08-19T12:09:37.764Z,97465.91
2022-08-19T12:12:45.991Z,97462.03
2022-08-19T12:15:56.040Z,97459.91
2022-08-19T12:19:00.244Z,97465.94
2022-08-19T12:22:04.522Z,97457.06
2022-08-19T12:25:07.220Z,97461.53
2022-08-19T12:28:09.074Z,97457.25
2022-08-19T12:31:15.039Z,97460.63
2022-08-19T12:34:17.279Z,97464.47
2022-08-19T12:37:21.669Z,97459.38
2022-08-19T12:40:23.997Z,97465.81
2022-08-19T12:43:30.578Z,97452.19
2022-08-19T12:46:35.553Z,97439.44
2022-08-19T12:49:53.573Z,97445.50
2022-08-19T12:52:58.906Z,97441.31
2022-08-19T12:56:01.245Z,97442.84
2022-08-19T12:59:04.359Z,97441.88
2022-08-19T13:02:07.979Z,97440.50
2022-08-19T13:05:12.833Z,97436.72
2022-08-19T13:08:15.515Z,97435.00
2022-08-19T13:11:24.554Z,97438.69
2022-08-19T13:14:27.793Z,97421.47
2022-08-19T13:17:29.857Z,97430.72
2022-08-19T13:20:32.037Z,97416.16
2022-08-19T13:23:35.586Z,97415.88
2022-08-19T13:26:37.520Z,97410.72
2022-08-19T13:30:00.215Z,97406.44
2022-08-19T13:33:12.492Z,97398.88
2022-08-19T13:36:14.676Z,97400.72
2022-08-19T13:39:17.197Z,97400.19
2022-08-19T13:42:20.538Z,97409.22
2022-08-19T13:45:25.489Z,97409.63
2022-08-19T13:48:30.179Z,97405.19
2022-08-19T13:51:32.205Z,97403.47
2022-08-19T13:54:45.034Z,97385.47
2022-08-19T13:57:47.366Z,97381.03
2022-08-19T14:00:49.721Z,97393.06
2022-08-19T14:03:52.156Z,97420.19
2022-08-19T14:06:54.328Z,97489.16
2022-08-19T14:09:56.409Z,97486.78
2022-08-19T14:13:00.349Z,97468.53
2022-08-19T14:16:03.294Z,97492.19
2022-08-19T14:19:05.631Z,97481.50
2022-08-19T14:22:07.766Z,97500.44
2022-08-19T14:25:12.842Z,97493.63
2022-08-19T14:28:14.977Z,97487.47
2022-08-19T14:31:20.308Z,97492.59
2022-08-19T14:34:23.749Z,97489.06
2022-08-19T14:37:26.542Z,97474.81
2022-08-19T14:40:31.339Z,97483.69
2022-08-19T14:43:33.308Z,97475.31
2022-08-19T14:46:35.426Z,97467.22
2022-08-19T14:49:41.174Z,97468.19
2022-08-19T14:52:48.038Z,97476.53
2022-08-19T14:55:50.360Z,97464.66
2022-08-19T14:58:55.362Z,97479.72
2022-08-19T15:01:57.630Z,97479.66
2022-08-19T15:04:59.886Z,97486.41
2022-08-19T15:08:05.404Z,97497.59
2022-08-19T15:11:12.975Z,97528.94
2022-08-19T15:14:17.789Z,97567.19
2022-08-19T15:17:20.726Z,97567.84
2022-08-19T15:20:23.968Z,97583.94
2022-08-19T15:23:26.859Z,97590.31
2022-08-19T15:26:33.412Z,97591.47
2022-08-19T15:29:39.846Z,97615.69
2022-08-19T15:32:42.852Z,97641.19
2022-08-19T15:35:48.479Z,97632.03
2022-08-19T15:38:53.581Z,97635.66
2022-08-19T15:41:56.013Z,97623.53
2022-08-19T15:45:00.364Z,97610.50
2022-08-19T15:48:05.491Z,97628.69
2022-08-19T15:51:07.478Z,97611.75
2022-08-19T15:54:13.223Z,97593.53
2022-08-19T15:57:27.431Z,97570.69
2022-08-19T16:00:52.689Z,97578.59
2022-08-19T16:04:16.173Z,97569.50
2022-08-19T16:07:23.471Z,97584.28
2022-08-19T16:10:27.973Z,97591.19
2022-08-19T16:13:30.288Z,97608.47
2022-08-19T16:16:35.265Z,97623.00
2022-08-19T16:19:38.262Z,97618.94
2022-08-19T16:22:41.735Z,97634.91
2022-08-19T16:25:44.093Z,97664.75
2022-08-19T16:28:50.341Z,97669.94
2022-08-19T16:31:54.843Z,97682.94
2022-08-19T16:35:04.615Z,97686.31
2022-08-19T16:38:10.271Z,97670.38
2022-08-19T16:41:14.899Z,97674.41
2022-08-19T16:44:19.961Z,97699.75
2022-08-19T16:47:25.437Z,97709.22
2022-08-19T16:50:47.733Z,97723.53
2022-08-19T16:53:53.128Z,97745.81
2022-08-19T16:56:56.456Z,97754.56
2022-08-19T16:59:58.805Z,97741.59
2022-08-19T17:03:13.098Z,97731.19
2022-08-19T17:06:21.348Z,97732.56
2022-08-19T17:09:26.082Z,97732.47
2022-08-19T17:12:31.602Z,97718.94
2022-08-19T17:15:35.251Z,97696.03
2022-08-19T17:18:37.595Z,97678.88
2022-08-19T17:21:40.938Z,97635.47
2022-08-19T17:24:43.078Z,97632.19
2022-08-19T17:27:45.931Z,97616.97
2022-08-19T17:30:48.526Z,97626.28
2022-08-19T17:33:51.295Z,97620.75
2022-08-19T17:36:57.126Z,97614.00
2022-08-19T17:40:00.280Z,97602.84
2022-08-19T17:43:02.946Z,97602.69
2022-08-19T17:46:06.244Z,97609.78
2022-08-19T17:49:08.832Z,97623.97
2022-08-19T17:52:12.007Z,97617.66
2022-08-19T17:55:14.410Z,97621.91
2022-08-19T17:58:16.951Z,97648.19
2022-08-19T18:01:22.056Z,97664.84
2022-08-19T18:07:30.899Z,97651.31
2022-08-19T18:10:35.210Z,97635.13
2022-08-19T18:13:37.899Z,97604.97
2022-08-19T18:16:40.447Z,97589.53
2022-08-19T18:19:44.093Z,97602.31
2022-08-19T18:22:48.467Z,97631.00
2022-08-19T18:25:50.906Z,97648.00
2022-08-19T18:28:54.314Z,97661.47
2022-08-19T18:31:58.123Z,97678.94
2022-08-19T18:35:06.667Z,97680.91
2022-08-19T18:38:29.027Z,97676.25
2022-08-19T18:41:49.650Z,97664.75
2022-08-19T18:45:10.249Z,97668.94
2022-08-19T18:48:30.711Z,97671.03
2022-08-19T18:51:33.326Z,97680.34
2022-08-19T18:54:36.160Z,97662.88
2022-08-19T18:57:38.464Z,97686.81
2022-08-19T19:00:41.329Z,97686.94
2022-08-19T19:03:47.149Z,97708.53
2022-08-19T19:06:49.497Z,97688.25
2022-08-19T19:09:52.263Z,97651.69
2022-08-19T19:12:54.806Z,97654.50
2022-08-19T19:15:57.287Z,97670.44
2022-08-19T19:19:03.155Z,97670.38
2022-08-19T19:22:05.652Z,97627.19
2022-08-19T19:25:09.042Z,97599.31
2022-08-19T19:28:16.019Z,97574.09
2022-08-19T19:31:27.044Z,97530.91
2022-08-19T19:34:30.845Z,97516.81
2022-08-19T19:37:33.650Z,97503.84
2022-08-19T19:40:36.176Z,97470.13
2022-08-19T19:43:41.084Z,97506.94
2022-08-19T19:46:44.286Z,97600.22
2022-08-19T19:53:16.389Z,97573.63
2022-08-19T19:56:19.126Z,97600.34
2022-08-19T19:59:21.373Z,97604.63
2022-08-19T20:02:25.442Z,97586.88
2022-08-19T20:05:28.125Z,97591.13
2022-08-19T20:08:49.082Z,97593.59
2022-08-19T20:11:54.909Z,97596.38
2022-08-19T20:14:57.084Z,97604.75
2022-08-19T20:18:01.082Z,97622.06
2022-08-19T20:21:04.086Z,97626.47
2022-08-19T20:24:09.592Z,97627.41
2022-08-19T20:27:13.018Z,97630.63
2022-08-19T20:30:19.613Z,97639.00
2022-08-19T20:33:23.246Z,97648.63
2022-08-19T20:36:25.425Z,97661.06
2022-08-19T20:39:27.589Z,97682.19
2022-08-19T20:42:29.797Z,97676.38
2022-08-19T20:45:36.684Z,97674.78
2022-08-19T20:48:43.432Z,97682.28
2022-08-19T20:51:47.334Z,97681.72
2022-08-19T20:54:49.761Z,97686.91
2022-08-19T20:57:52.371Z,97704.41
2022-08-19T21:00:57.531Z,97702.75
2022-08-19T21:03:59.672Z,97708.88
2022-08-19T21:07:02.592Z,97713.31
2022-08-19T21:10:05.606Z,97719.94
2022-08-19T21:13:07.810Z,97737.91
2022-08-19T21:16:09.808Z,97738.13
2022-08-19T21:19:12.141Z,97738.06
2022-08-19T21:22:14.458Z,97733.03
2022-08-19T21:25:17.824Z,97742.44
2022-08-19T21:28:29.879Z,97737.00
2022-08-19T21:31:39.007Z,97735.47
2022-08-19T21:34:41.531Z,97732.06
2022-08-19T21:37:48.768Z,97746.72
2022-08-19T21:40:51.325Z,97745.09
2022-08-19T21:43:53.456Z,97748.34
2022-08-19T21:46:59.590Z,97757.81
2022-08-19T21:50:01.463Z,97751.06
2022-08-19T21:53:05.316Z,97752.13
2022-08-19T21:56:07.726Z,97760.22
2022-08-19T21:59:10.079Z,97771.53
2022-08-19T22:02:21.533Z,97776.00
2022-08-19T22:05:24.950Z,97773.31
2022-08-19T22:08:27.347Z,97766.38
2022-08-19T22:11:29.839Z,97759.88
2022-08-19T22:14:33.778Z,97749.38
2022-08-19T22:17:36.762Z,97752.03
2022-08-19T22:20:38.904Z,97757.31
2022-08-19T22:23:42.402Z,97760.66
2022-08-19T22:26:47.356Z,97765.56
2022-08-19T22:29:52.505Z,97774.97
2022-08-19T22:33:02.114Z,97770.53
2022-08-19T22:36:07.649Z,97781.94
2022-08-19T22:42:18.742Z,97805.06
2022-08-19T22:45:21.026Z,97804.47
2022-08-19T22:48:28.915Z,97818.06
2022-08-19T22:51:49.219Z,97823.09
2022-08-19T22:54:53.700Z,97809.72
2022-08-19T22:57:56.966Z,97805.00
2022-08-19T23:00:59.318Z,97810.63
2022-08-19T23:04:03.911Z,97802.34
2022-08-19T23:07:06.445Z,97806.03
2022-08-19T23:10:12.691Z,97796.69
2022-08-19T23:13:17.354Z,97804.34
2022-08-19T23:16:19.848Z,97788.47
2022-08-19T23:19:22.456Z,97780.47
2022-08-19T23:22:25.262Z,97766.75
2022-08-19T23:25:30.666Z,97734.84
2022-08-19T23:28:51.513Z,97709.06
2022-08-19T23:31:53.312Z,97708.78
2022-08-19T23:34:57.093Z,97688.41
2022-08-19T23:38:01.181Z,97683.34
2022-08-19T23:41:06.745Z,97705.50
2022-08-19T23:44:14.735Z,97679.53
2022-08-19T23:47:17.180Z,97675.31
2022-08-19T23:50:19.683Z,97657.44
2022-08-19T23:53:21.918Z,97668.81
2022-08-19T23:56:23.975Z,97688.88
2022-08-19T23:59:25.854Z,97676.94
